Time;durP1;ratioP1;P1;durP2;ratioP2;P2;SDS_P1;SDS_P2;PMS_P1;PMS_P2;Temp;Humidity;BMP_temperature;BMP_pressure;BME280_temperature;BME280_humidity;BME280_pressure;Samples;Min_cycle;Max_cycle;Signal;HPM_P1;HPM_P2
2021/06/10 00:00:38;;;;;;;5.18;4.75;;;;;;;;;;5043344;28;20033;-80
2021/06/10 00:03:04;;;;;;;5.53;5.03;;;;;;;;;;5037207;28;20154;-81
2021/06/10 00:05:30;;;;;;;5.32;4.93;;;;;;;;;;5035734;28;20031;-80
2021/06/10 00:07:57;;;;;;;5.22;4.82;;;;;;;;;;5040584;28;20033;-80
2021/06/10 00:10:24;;;;;;;6.20;5.60;;;;;;;;;;5042281;28;20029;-81
2021/06/10 00:12:51;;;;;;;5.82;5.32;;;;;;;;;;5038782;28;20022;-80
2021/06/10 00:15:18;;;;;;;5.43;4.93;;;;;;;;;;5022077;28;20479;-80
2021/06/10 00:17:45;;;;;;;5.32;4.68;;;;;;;;;;5023000;28;20022;-80
2021/06/10 00:20:12;;;;;;;5.80;5.30;;;;;;;;;;5021467;28;20040;-80
2021/06/10 00:22:38;;;;;;;4.40;4.00;;;;;;;;;;5019878;28;20018;-80
2021/06/10 00:25:05;;;;;;;4.30;4.00;;;;;;;;;;5022623;28;20033;-80
2021/06/10 00:27:31;;;;;;;4.68;4.28;;;;;;;;;;5022390;28;20164;-79
2021/06/10 00:29:57;;;;;;;5.82;4.88;;;;;;;;;;5021898;28;20022;-80
2021/06/10 00:32:23;;;;;;;5.00;4.50;;;;;;;;;;5021476;28;20040;-80
2021/06/10 00:34:49;;;;;;;5.38;4.63;;;;;;;;;;5031675;28;20033;-80
2021/06/10 00:37:15;;;;;;;5.07;4.68;;;;;;;;;;5034794;28;20102;-79
2021/06/10 00:39:42;;;;;;;4.95;4.55;;;;;;;;;;5027579;28;20029;-80
2021/06/10 00:42:09;;;;;;;5.30;4.90;;;;;;;;;;5027711;28;20025;-80
2021/06/10 00:44:35;;;;;;;5.40;4.90;;;;;;;;;;5025815;28;20389;-81
2021/06/10 00:47:01;;;;;;;5.50;5.00;;;;;;;;;;5027334;28;20033;-80
2021/06/10 00:49:27;;;;;;;5.53;5.03;;;;;;;;;;5039051;28;20019;-80
2021/06/10 00:51:54;;;;;;;5.50;5.07;;;;;;;;;;5038585;28;20051;-80
2021/06/10 00:54:20;;;;;;;5.97;5.47;;;;;;;;;;5023314;28;20026;-80
2021/06/10 00:56:46;;;;;;;5.70;5.13;;;;;;;;;;5022922;28;20026;-81
2021/06/10 00:59:13;;;;;;;5.85;5.35;;;;;;;;;;5021961;28;20033;-81
2021/06/10 01:01:39;;;;;;;5.18;4.68;;;;;;;;;;5023123;28;20070;-81
2021/06/10 01:04:05;;;;;;;7.47;5.88;;;;;;;;;;5023079;28;20048;-81
2021/06/10 01:06:34;;;;;;;6.63;6.00;;;;;;;;;;5030034;28;20033;-79
2021/06/10 01:09:05;;;;;;;6.80;5.72;;;;;;;;;;5027659;28;20056;-80
2021/06/10 01:11:31;;;;;;;5.53;5.07;;;;;;;;;;5022511;28;20096;-80
2021/06/10 01:14:11;;;;;;;6.03;5.53;;;;;;;;;;5020973;28;20042;-80
2021/06/10 01:16:39;;;;;;;5.55;5.05;;;;;;;;;;5022893;28;20049;-80
2021/06/10 01:19:31;;;;;;;7.10;5.97;;;;;;;;;;5031052;28;20052;-80
2021/06/10 01:21:58;;;;;;;7.47;6.88;;;;;;;;;;5045544;28;20026;-80
2021/06/10 01:24:29;;;;;;;6.65;6.05;;;;;;;;;;5019135;28;20141;-81
2021/06/10 01:27:01;;;;;;;6.07;5.50;;;;;;;;;;5000556;28;20173;-80
2021/06/10 01:29:28;;;;;;;6.55;5.95;;;;;;;;;;5029038;28;20060;-79
2021/06/10 01:31:55;;;;;;;6.78;6.10;;;;;;;;;;5046595;28;20041;-79
2021/06/10 01:34:21;;;;;;;7.95;7.25;;;;;;;;;;5029140;28;20030;-79
2021/06/10 01:36:48;;;;;;;9.82;8.88;;;;;;;;;;5029647;28;20030;-80
2021/06/10 01:39:20;;;;;;;9.05;8.15;;;;;;;;;;5027238;28;20030;-79
2021/06/10 01:41:46;;;;;;;7.90;7.20;;;;;;;;;;5050794;28;20163;-81
2021/06/10 01:44:13;;;;;;;7.32;6.63;;;;;;;;;;5045524;28;20347;-81
2021/06/10 01:46:39;;;;;;;7.38;6.68;;;;;;;;;;5039257;28;20119;-80
2021/06/10 01:49:06;;;;;;;7.50;6.85;;;;;;;;;;5036189;28;20121;-79
2021/06/10 01:51:32;;;;;;;7.75;7.00;;;;;;;;;;5032532;28;20025;-80
2021/06/10 01:54:01;;;;;;;7.80;6.35;;;;;;;;;;5022351;28;20030;-79
2021/06/10 01:56:28;;;;;;;6.28;5.75;;;;;;;;;;5023136;28;20029;-80
2021/06/10 01:58:54;;;;;;;7.28;6.57;;;;;;;;;;5018493;28;20125;-80
2021/06/10 02:01:24;;;;;;;7.18;6.57;;;;;;;;;;5026430;28;20347;-80
2021/06/10 02:03:52;;;;;;;6.55;5.95;;;;;;;;;;5026026;28;20034;-80
2021/06/10 02:06:18;;;;;;;7.32;6.63;;;;;;;;;;5019890;28;20042;-79
2021/06/10 02:08:47;;;;;;;8.30;7.50;;;;;;;;;;5019498;28;20026;-80
2021/06/10 02:11:14;;;;;;;8.80;8.00;;;;;;;;;;5020429;28;20438;-80
2021/06/10 02:13:40;;;;;;;8.70;7.90;;;;;;;;;;5039138;28;20369;-80
2021/06/10 02:16:09;;;;;;;9.38;8.38;;;;;;;;;;5040186;28;20108;-80
2021/06/10 02:18:36;;;;;;;6.32;5.72;;;;;;;;;;5038948;28;20029;-80
2021/06/10 02:21:04;;;;;;;6.57;6.07;;;;;;;;;;5039411;28;20044;-80
2021/06/10 02:23:30;;;;;;;6.50;5.90;;;;;;;;;;5027044;28;20044;-81
2021/06/10 02:25:56;;;;;;;7.63;6.88;;;;;;;;;;5018679;28;20048;-80
2021/06/10 02:28:22;;;;;;;8.15;6.93;;;;;;;;;;5019479;28;20093;-80
2021/06/10 02:30:49;;;;;;;11.15;9.88;;;;;;;;;;5027300;28;20064;-80
2021/06/10 02:33:16;;;;;;;8.75;7.85;;;;;;;;;;5036909;28;20053;-80
2021/06/10 02:35:42;;;;;;;10.90;9.57;;;;;;;;;;5038694;28;20022;-80
2021/06/10 02:38:09;;;;;;;9.93;8.95;;;;;;;;;;5038503;28;20029;-79
2021/06/10 02:40:38;;;;;;;9.45;8.55;;;;;;;;;;5038566;28;20028;-81
2021/06/10 02:43:05;;;;;;;8.35;7.55;;;;;;;;;;5036531;28;20021;-80
2021/06/10 02:45:31;;;;;;;7.43;6.82;;;;;;;;;;5040103;28;20014;-81
2021/06/10 02:47:59;;;;;;;7.32;6.63;;;;;;;;;;5039817;28;20104;-82
2021/06/10 02:50:26;;;;;;;6.80;6.20;;;;;;;;;;5034295;28;20566;-81
2021/06/10 02:52:52;;;;;;;6.72;6.13;;;;;;;;;;5021897;28;20038;-80
2021/06/10 02:55:19;;;;;;;6.80;6.18;;;;;;;;;;5028864;28;20087;-80
2021/06/10 02:57:50;;;;;;;8.38;7.20;;;;;;;;;;5022254;28;20088;-80
2021/06/10 03:00:18;;;;;;;8.63;7.80;;;;;;;;;;5021236;28;20022;-81
2021/06/10 03:02:44;;;;;;;7.35;6.65;;;;;;;;;;5039401;28;20080;-79
2021/06/10 03:05:12;;;;;;;6.97;6.38;;;;;;;;;;5032665;28;20036;-80
2021/06/10 03:07:38;;;;;;;6.57;5.97;;;;;;;;;;5007388;28;20042;-80
2021/06/10 03:10:06;;;;;;;6.78;6.18;;;;;;;;;;5021852;28;20030;-80
2021/06/10 03:12:32;;;;;;;8.13;7.38;;;;;;;;;;5029074;28;20369;-81
2021/06/10 03:14:58;;;;;;;8.65;7.82;;;;;;;;;;5028397;28;20045;-80
2021/06/10 03:17:24;;;;;;;7.80;7.10;;;;;;;;;;5041124;28;20083;-81
2021/06/10 03:19:50;;;;;;;7.80;7.10;;;;;;;;;;5039071;28;20473;-79
2021/06/10 03:22:17;;;;;;;7.50;6.80;;;;;;;;;;5035036;28;20030;-80
2021/06/10 03:24:44;;;;;;;6.43;5.82;;;;;;;;;;5020312;28;20034;-79
2021/06/10 03:27:11;;;;;;;6.20;5.60;;;;;;;;;;5038910;28;20029;-79
2021/06/10 03:29:37;;;;;;;8.77;6.30;;;;;;;;;;5038078;28;20093;-80
2021/06/10 03:32:04;;;;;;;7.13;6.43;;;;;;;;;;5018704;28;20030;-80
2021/06/10 03:34:30;;;;;;;7.43;6.72;;;;;;;;;;5019505;28;20030;-80
2021/06/10 03:36:57;;;;;;;9.13;6.63;;;;;;;;;;5034304;28;20026;-80
2021/06/10 03:39:24;;;;;;;8.65;7.25;;;;;;;;;;5033190;28;20018;-81
2021/06/10 03:41:52;;;;;;;7.50;6.78;;;;;;;;;;5018587;28;20117;-80
2021/06/10 03:44:18;;;;;;;7.05;6.35;;;;;;;;;;5025174;28;20288;-80
2021/06/10 03:46:44;;;;;;;7.95;6.03;;;;;;;;;;5038215;28;20033;-80
2021/06/10 03:49:13;;;;;;;8.27;7.47;;;;;;;;;;5022473;28;20033;-80
2021/06/10 03:51:40;;;;;;;11.27;8.35;;;;;;;;;;5025187;28;20359;-80
2021/06/10 03:54:08;;;;;;;9.18;8.27;;;;;;;;;;5031377;28;20081;-80
2021/06/10 03:56:35;;;;;;;9.68;8.18;;;;;;;;;;5020641;28;20032;-79
2021/06/10 03:59:01;;;;;;;8.00;7.20;;;;;;;;;;5038395;28;20032;-80
2021/06/10 04:01:27;;;;;;;7.53;6.82;;;;;;;;;;5041329;28;20121;-80
2021/06/10 04:03:53;;;;;;;6.30;5.70;;;;;;;;;;5042107;28;20021;-79
2021/06/10 04:06:26;;;;;;;5.50;5.00;;;;;;;;;;5022794;28;20026;-80
2021/06/10 04:08:53;;;;;;;6.05;5.55;;;;;;;;;;5027154;28;20451;-80
2021/06/10 04:11:19;;;;;;;7.40;6.60;;;;;;;;;;5042722;28;20085;-85
2021/06/10 04:13:45;;;;;;;7.20;6.60;;;;;;;;;;5023649;28;20038;-79
2021/06/10 04:16:11;;;;;;;5.72;5.22;;;;;;;;;;5042220;28;20068;-81
2021/06/10 04:18:37;;;;;;;6.18;5.68;;;;;;;;;;5037295;28;20032;-81
2021/06/10 04:21:03;;;;;;;5.45;4.95;;;;;;;;;;5026614;28;20014;-82
2021/06/10 04:23:29;;;;;;;6.22;5.63;;;;;;;;;;5024782;28;20030;-81
2021/06/10 04:25:55;;;;;;;5.70;5.10;;;;;;;;;;5031476;28;20053;-79
2021/06/10 04:28:21;;;;;;;6.45;5.25;;;;;;;;;;5032923;28;20053;-78
2021/06/10 04:30:47;;;;;;;5.55;5.05;;;;;;;;;;5037025;28;20057;-79
2021/06/10 04:33:14;;;;;;;5.30;4.80;;;;;;;;;;5030062;28;20030;-80
2021/06/10 04:35:40;;;;;;;5.93;5.43;;;;;;;;;;5024806;28;20521;-80
2021/06/10 04:38:06;;;;;;;5.25;4.75;;;;;;;;;;5024163;28;20041;-80
2021/06/10 04:40:32;;;;;;;5.03;4.63;;;;;;;;;;5024966;28;20030;-80
2021/06/10 04:42:58;;;;;;;5.85;4.82;;;;;;;;;;5026349;28;20431;-79
2021/06/10 04:45:24;;;;;;;5.53;5.03;;;;;;;;;;5043528;28;20105;-82
2021/06/10 04:47:50;;;;;;;6.75;6.15;;;;;;;;;;5043015;28;20025;-81
2021/06/10 04:50:16;;;;;;;5.85;5.32;;;;;;;;;;5044747;28;20091;-81
2021/06/10 04:52:43;;;;;;;6.72;6.03;;;;;;;;;;5037399;28;20078;-81
2021/06/10 04:55:09;;;;;;;6.95;6.22;;;;;;;;;;5041893;28;20045;-80
2021/06/10 04:57:35;;;;;;;6.32;5.72;;;;;;;;;;5054956;28;20009;-82
2021/06/10 05:00:01;;;;;;;6.22;5.70;;;;;;;;;;5052930;28;20034;-83
2021/06/10 05:02:28;;;;;;;5.60;5.13;;;;;;;;;;5038036;28;20025;-82
2021/06/10 05:04:54;;;;;;;5.43;5.03;;;;;;;;;;5041804;28;20034;-83
2021/06/10 05:07:20;;;;;;;6.18;5.60;;;;;;;;;;5041574;28;20515;-82
2021/06/10 05:09:46;;;;;;;6.68;5.20;;;;;;;;;;5033460;28;20037;-83
2021/06/10 05:12:12;;;;;;;5.40;5.00;;;;;;;;;;5031528;28;20030;-82
2021/06/10 05:14:38;;;;;;;6.22;5.70;;;;;;;;;;5041125;28;20041;-82
2021/06/10 05:17:04;;;;;;;5.93;5.38;;;;;;;;;;5034857;28;20030;-83
2021/06/10 05:19:30;;;;;;;6.32;5.60;;;;;;;;;;5023752;28;20022;-82
2021/06/10 05:21:56;;;;;;;7.55;6.53;;;;;;;;;;5048940;28;20025;-82
2021/06/10 05:24:23;;;;;;;6.93;6.22;;;;;;;;;;5020854;28;20030;-82
2021/06/10 05:26:49;;;;;;;5.82;5.22;;;;;;;;;;5020007;28;20030;-82
2021/06/10 05:29:16;;;;;;;4.90;4.50;;;;;;;;;;5039967;28;20018;-82
2021/06/10 05:31:42;;;;;;;5.97;5.40;;;;;;;;;;5039822;28;20037;-83
2021/06/10 05:34:08;;;;;;;6.28;5.28;;;;;;;;;;5034318;28;20050;-82
2021/06/10 05:36:34;;;;;;;5.13;4.68;;;;;;;;;;5025911;28;20045;-83
2021/06/10 05:39:00;;;;;;;5.00;4.60;;;;;;;;;;5024038;28;20479;-83
2021/06/10 05:41:26;;;;;;;6.78;4.38;;;;;;;;;;5044256;28;20026;-83
2021/06/10 05:43:53;;;;;;;8.65;5.40;;;;;;;;;;5034057;28;20149;-83
2021/06/10 05:46:20;;;;;;;5.50;5.00;;;;;;;;;;5025111;28;20030;-82
2021/06/10 05:48:46;;;;;;;5.32;4.75;;;;;;;;;;5021839;28;20045;-83
2021/06/10 05:51:13;;;;;;;6.75;5.28;;;;;;;;;;5031042;28;20038;-83
2021/06/10 05:53:39;;;;;;;5.75;5.15;;;;;;;;;;5035972;28;20038;-83
2021/06/10 05:56:05;;;;;;;5.03;4.57;;;;;;;;;;5022108;28;20132;-84
2021/06/10 05:58:31;;;;;;;5.10;4.60;;;;;;;;;;5021915;28;20052;-83
2021/06/10 06:00:57;;;;;;;4.32;4.03;;;;;;;;;;5024909;28;20026;-84
2021/06/10 06:03:26;;;;;;;5.00;4.60;;;;;;;;;;5021971;28;20048;-84
2021/06/10 06:05:52;;;;;;;4.65;4.25;;;;;;;;;;5036660;28;20061;-84
2021/06/10 06:08:18;;;;;;;6.82;5.30;;;;;;;;;;5038154;28;20030;-83
2021/06/10 06:10:47;;;;;;;6.68;6.07;;;;;;;;;;5043833;28;20174;-84
2021/06/10 06:13:15;;;;;;;6.10;5.50;;;;;;;;;;5019201;28;20097;-84
2021/06/10 06:15:41;;;;;;;8.88;5.47;;;;;;;;;;5050417;28;20034;-81
2021/06/10 06:18:08;;;;;;;6.07;5.47;;;;;;;;;;5048681;28;20018;-82
2021/06/10 06:20:34;;;;;;;7.68;6.97;;;;;;;;;;5039548;28;20037;-81
2021/06/10 06:23:00;;;;;;;8.02;6.57;;;;;;;;;;5024020;28;20022;-81
2021/06/10 06:25:27;;;;;;;5.97;5.40;;;;;;;;;;5031127;28;20301;-82
2021/06/10 06:27:53;;;;;;;7.63;6.55;;;;;;;;;;5026096;28;20022;-82
2021/06/10 06:30:19;;;;;;;7.05;5.88;;;;;;;;;;5024617;28;20088;-81
2021/06/10 06:32:45;;;;;;;10.60;6.75;;;;;;;;;;5022061;28;20499;-81
2021/06/10 06:35:12;;;;;;;8.05;7.25;;;;;;;;;;5022446;28;20049;-81
2021/06/10 06:37:38;;;;;;;6.78;6.18;;;;;;;;;;5025165;28;20480;-80
2021/06/10 06:40:04;;;;;;;5.65;5.15;;;;;;;;;;5024875;28;20131;-82
2021/06/10 06:42:32;;;;;;;8.50;7.10;;;;;;;;;;5025994;28;20120;-80
2021/06/10 06:44:58;;;;;;;6.53;5.93;;;;;;;;;;5035473;28;20025;-81
2021/06/10 06:47:24;;;;;;;5.95;5.43;;;;;;;;;;5038896;28;20486;-81
2021/06/10 06:49:50;;;;;;;9.75;7.43;;;;;;;;;;5027122;28;20037;-80
2021/06/10 06:52:16;;;;;;;7.15;6.45;;;;;;;;;;5038578;28;20093;-82
2021/06/10 06:54:42;;;;;;;6.45;5.88;;;;;;;;;;5028833;28;20387;-81
2021/06/10 06:57:08;;;;;;;8.05;7.22;;;;;;;;;;5029558;28;20805;-82
2021/06/10 06:59:34;;;;;;;9.52;8.63;;;;;;;;;;5049090;28;20033;-82
2021/06/10 07:02:00;;;;;;;7.18;6.57;;;;;;;;;;5051599;28;20024;-80
2021/06/10 07:04:26;;;;;;;10.52;6.07;;;;;;;;;;5055844;28;20482;-81
2021/06/10 07:06:53;;;;;;;5.68;5.07;;;;;;;;;;5053746;28;20089;-81
2021/06/10 07:09:19;;;;;;;4.93;4.53;;;;;;;;;;5045132;28;20020;-81
2021/06/10 07:11:45;;;;;;;5.78;5.30;;;;;;;;;;5031114;28;20034;-82
2021/06/10 07:14:11;;;;;;;7.43;6.50;;;;;;;;;;5034247;28;20077;-81
2021/06/10 07:16:38;;;;;;;4.90;4.50;;;;;;;;;;5052292;28;20036;-80
2021/06/10 07:19:04;;;;;;;7.03;6.32;;;;;;;;;;5052171;28;20017;-81
2021/06/10 07:22:02;;;;;;;9.90;6.43;;;;;;;;;;5038657;28;20014;-83
2021/06/10 07:24:28;;;;;;;7.18;6.45;;;;;;;;;;5008946;28;20046;-82
2021/06/10 07:26:54;;;;;;;5.72;5.18;;;;;;;;;;5033033;28;20090;-82
2021/06/10 07:29:21;;;;;;;5.63;5.13;;;;;;;;;;5030950;28;20029;-83
2021/06/10 07:31:47;;;;;;;5.70;5.20;;;;;;;;;;5030444;28;20014;-82
2021/06/10 07:34:14;;;;;;;6.47;5.88;;;;;;;;;;5035747;28;20041;-82
2021/06/10 07:36:40;;;;;;;7.28;6.57;;;;;;;;;;5050555;28;20030;-81
2021/06/10 07:39:07;;;;;;;6.90;6.20;;;;;;;;;;5047078;28;20029;-82
2021/06/10 07:41:34;;;;;;;6.57;5.97;;;;;;;;;;5049042;28;20044;-82
2021/06/10 07:44:00;;;;;;;8.35;7.55;;;;;;;;;;5043378;28;20026;-81
2021/06/10 07:46:26;;;;;;;7.07;6.47;;;;;;;;;;5030711;28;20026;-81
2021/06/10 07:48:52;;;;;;;7.68;6.85;;;;;;;;;;5030221;28;20053;-82
2021/06/10 07:51:18;;;;;;;7.70;7.00;;;;;;;;;;5034690;28;20045;-82
2021/06/10 07:53:44;;;;;;;6.65;6.05;;;;;;;;;;5029064;28;20029;-82
2021/06/10 07:56:10;;;;;;;6.78;6.15;;;;;;;;;;5032595;28;20026;-83
2021/06/10 07:58:36;;;;;;;8.73;7.88;;;;;;;;;;5028255;28;20064;-82
2021/06/10 08:01:04;;;;;;;7.82;7.13;;;;;;;;;;5031178;28;20029;-80
2021/06/10 08:03:30;;;;;;;8.73;7.82;;;;;;;;;;5032157;28;20048;-81
2021/06/10 08:05:58;;;;;;;6.97;6.22;;;;;;;;;;5045842;28;20049;-82
2021/06/10 08:08:24;;;;;;;6.75;6.18;;;;;;;;;;5046259;28;20029;-82
2021/06/10 08:10:50;;;;;;;8.73;7.28;;;;;;;;;;5032020;28;20029;-82
2021/06/10 08:13:18;;;;;;;7.75;7.05;;;;;;;;;;5026337;28;20096;-83
2021/06/10 08:15:45;;;;;;;6.70;6.10;;;;;;;;;;5030816;28;20053;-82
2021/06/10 08:18:11;;;;;;;7.30;6.60;;;;;;;;;;5039753;28;20053;-83
2021/06/10 08:20:37;;;;;;;6.75;6.15;;;;;;;;;;5046751;28;20037;-83
2021/06/10 08:23:04;;;;;;;6.43;5.82;;;;;;;;;;5038685;28;20093;-83
2021/06/10 08:25:32;;;;;;;6.18;5.55;;;;;;;;;;5031741;28;20562;-81
2021/06/10 08:27:59;;;;;;;7.75;6.95;;;;;;;;;;5025347;28;20045;-82
2021/06/10 08:30:26;;;;;;;6.63;6.07;;;;;;;;;;5030609;28;20026;-82
2021/06/10 08:32:52;;;;;;;6.57;6.05;;;;;;;;;;5029894;28;20026;-82
2021/06/10 08:35:18;;;;;;;6.70;6.10;;;;;;;;;;5027669;28;20026;-82
2021/06/10 08:37:45;;;;;;;6.72;6.22;;;;;;;;;;5037047;28;20010;-80
2021/06/10 08:40:13;;;;;;;6.75;6.15;;;;;;;;;;5036197;28;20029;-83
2021/06/10 08:42:40;;;;;;;6.75;6.05;;;;;;;;;;5031693;28;20014;-82
2021/06/10 08:45:11;;;;;;;6.78;6.10;;;;;;;;;;5026786;28;20033;-82
2021/06/10 08:47:38;;;;;;;7.27;6.57;;;;;;;;;;5030909;28;20057;-82
2021/06/10 08:50:05;;;;;;;6.88;6.20;;;;;;;;;;5037887;28;20049;-83
2021/06/10 08:52:32;;;;;;;9.00;6.88;;;;;;;;;;5041892;28;20041;-82
2021/06/10 08:54:58;;;;;;;7.20;6.53;;;;;;;;;;5042679;28;20113;-84
2021/06/10 08:57:25;;;;;;;7.95;7.30;;;;;;;;;;5043424;28;20018;-84
2021/06/10 08:59:51;;;;;;;6.43;5.85;;;;;;;;;;5044522;28;20032;-84
2021/06/10 09:02:17;;;;;;;7.53;6.90;;;;;;;;;;5045539;28;20624;-84
2021/06/10 09:04:43;;;;;;;7.72;6.90;;;;;;;;;;5045169;28;20037;-85
2021/06/10 09:07:10;;;;;;;7.93;7.22;;;;;;;;;;5043778;28;20026;-85
2021/06/10 09:09:40;;;;;;;7.57;6.75;;;;;;;;;;5044462;28;20077;-84
2021/06/10 09:12:08;;;;;;;6.85;6.18;;;;;;;;;;5032339;28;20463;-85
2021/06/10 09:14:52;;;;;;;7.60;6.88;;;;;;;;;;5024933;28;20056;-84
2021/06/10 09:17:32;;;;;;;6.05;5.45;;;;;;;;;;5026842;28;20491;-85
2021/06/10 09:19:59;;;;;;;6.53;6.03;;;;;;;;;;5053506;28;20041;-83
2021/06/10 09:22:29;;;;;;;6.57;6.07;;;;;;;;;;5041486;28;20076;-84
2021/06/10 09:25:09;;;;;;;6.90;6.20;;;;;;;;;;5023457;28;20049;-83
2021/06/10 09:27:49;;;;;;;6.38;5.82;;;;;;;;;;5022800;28;20025;-83
2021/06/10 09:30:27;;;;;;;7.65;6.72;;;;;;;;;;5023911;28;20026;-83
2021/06/10 09:32:53;;;;;;;5.40;5.00;;;;;;;;;;5028566;28;20143;-84
2021/06/10 09:35:26;;;;;;;5.05;4.65;;;;;;;;;;5042229;28;20057;-84
2021/06/10 09:37:57;;;;;;;6.53;5.95;;;;;;;;;;5041343;28;20018;-84
2021/06/10 09:40:23;;;;;;;6.80;6.20;;;;;;;;;;5039125;28;20014;-84
2021/06/10 09:42:49;;;;;;;6.72;5.88;;;;;;;;;;5043199;28;20085;-82
2021/06/10 09:45:17;;;;;;;5.40;5.00;;;;;;;;;;5048486;28;20038;-84
2021/06/10 09:47:45;;;;;;;5.35;4.95;;;;;;;;;;5045919;28;20064;-83
2021/06/10 09:50:15;;;;;;;5.93;5.43;;;;;;;;;;5040360;28;20021;-82
2021/06/10 09:52:52;;;;;;;6.50;5.90;;;;;;;;;;5049041;28;20037;-82
2021/06/10 09:55:29;;;;;;;6.93;5.22;;;;;;;;;;5026881;28;20114;-84
2021/06/10 09:57:56;;;;;;;9.75;6.10;;;;;;;;;;5023302;28;20451;-84
2021/06/10 10:00:26;;;;;;;5.55;5.13;;;;;;;;;;5021462;28;20022;-83
2021/06/10 10:02:52;;;;;;;5.50;5.10;;;;;;;;;;5024953;28;20505;-84
2021/06/10 10:05:22;;;;;;;5.22;4.72;;;;;;;;;;5035554;28;20041;-84
2021/06/10 10:07:48;;;;;;;6.53;5.93;;;;;;;;;;5041543;28;20048;-85
2021/06/10 10:10:15;;;;;;;5.85;5.35;;;;;;;;;;5040639;28;20053;-85
2021/06/10 10:12:44;;;;;;;5.28;4.88;;;;;;;;;;5029671;28;20029;-83
2021/06/10 10:15:11;;;;;;;5.95;5.45;;;;;;;;;;5033541;28;20052;-84
2021/06/10 10:17:37;;;;;;;5.28;4.88;;;;;;;;;;5044212;28;20022;-84
2021/06/10 10:20:04;;;;;;;5.90;5.30;;;;;;;;;;5045233;28;20010;-83
2021/06/10 10:22:31;;;;;;;8.85;5.90;;;;;;;;;;5036679;28;20042;-84
2021/06/10 10:24:59;;;;;;;6.22;4.95;;;;;;;;;;5030473;28;20094;-86
2021/06/10 10:27:25;;;;;;;6.25;5.43;;;;;;;;;;5022253;28;20041;-84
2021/06/10 10:29:53;;;;;;;5.50;5.10;;;;;;;;;;5023514;28;20038;-84
2021/06/10 10:32:26;;;;;;;5.47;4.95;;;;;;;;;;5025634;28;20305;-84
2021/06/10 10:34:53;;;;;;;5.60;5.03;;;;;;;;;;5002434;28;20030;-84
2021/06/10 10:37:24;;;;;;;5.18;4.70;;;;;;;;;;5003624;28;20015;-84
2021/06/10 10:39:53;;;;;;;6.85;5.90;;;;;;;;;;5039279;28;20079;-83
2021/06/10 10:42:26;;;;;;;6.28;5.72;;;;;;;;;;5041488;28;20014;-84
2021/06/10 10:44:54;;;;;;;5.35;4.95;;;;;;;;;;5040827;28;20026;-84
2021/06/10 10:47:20;;;;;;;4.82;4.43;;;;;;;;;;5041774;28;20026;-83
2021/06/10 10:49:48;;;;;;;4.70;4.30;;;;;;;;;;5032399;28;20501;-82
2021/06/10 10:52:14;;;;;;;5.28;4.88;;;;;;;;;;5034812;28;20034;-84
2021/06/10 10:54:40;;;;;;;5.47;5.07;;;;;;;;;;5029747;28;20061;-83
2021/06/10 10:57:07;;;;;;;6.05;5.43;;;;;;;;;;5041590;28;20040;-82
2021/06/10 10:59:40;;;;;;;4.75;4.35;;;;;;;;;;5041763;28;20025;-85
2021/06/10 11:02:11;;;;;;;5.35;4.95;;;;;;;;;;5044409;28;20032;-84
2021/06/10 11:04:47;;;;;;;5.97;5.47;;;;;;;;;;5046406;28;20049;-82
2021/06/10 11:07:40;;;;;;;7.32;5.65;;;;;;;;;;5030352;28;20030;-84
2021/06/10 11:10:09;;;;;;;6.25;5.65;;;;;;;;;;5026114;28;20044;-85
2021/06/10 11:12:44;;;;;;;5.32;4.82;;;;;;;;;;5042297;28;20029;-84
2021/06/10 11:15:23;;;;;;;6.68;4.80;;;;;;;;;;5036292;28;20113;-85
2021/06/10 11:17:51;;;;;;;5.82;5.30;;;;;;;;;;5029093;28;20040;-85
2021/06/10 11:20:17;;;;;;;5.45;5.05;;;;;;;;;;5043151;28;20017;-85
2021/06/10 11:22:48;;;;;;;5.05;4.57;;;;;;;;;;5037155;28;20518;-85
2021/06/10 11:25:17;;;;;;;6.25;4.95;;;;;;;;;;5026696;28;20437;-85
2021/06/10 11:27:47;;;;;;;4.90;4.50;;;;;;;;;;5000403;28;20034;-84
2021/06/10 11:30:18;;;;;;;4.68;4.25;;;;;;;;;;5025897;28;20327;-84
2021/06/10 11:32:59;;;;;;;4.13;3.83;;;;;;;;;;5038574;28;20068;-84
2021/06/10 11:35:39;;;;;;;4.22;3.92;;;;;;;;;;5028054;28;20030;-84
2021/06/10 11:38:10;;;;;;;5.03;4.63;;;;;;;;;;5020658;28;20057;-84
2021/06/10 11:40:37;;;;;;;5.32;4.93;;;;;;;;;;5022096;28;20033;-84
2021/06/10 11:43:07;;;;;;;4.97;4.57;;;;;;;;;;5020608;28;20022;-84
2021/06/10 11:45:33;;;;;;;5.20;4.70;;;;;;;;;;5020059;28;20029;-85
2021/06/10 11:47:59;;;;;;;5.15;4.75;;;;;;;;;;5022295;28;20482;-84
2021/06/10 11:50:27;;;;;;;5.82;5.20;;;;;;;;;;5020606;28;20064;-84
2021/06/10 11:52:59;;;;;;;6.35;4.68;;;;;;;;;;5021168;28;20034;-85
2021/06/10 11:55:27;;;;;;;4.97;4.57;;;;;;;;;;5025447;28;20025;-85
2021/06/10 11:57:54;;;;;;;5.05;4.65;;;;;;;;;;5037042;28;20056;-84
2021/06/10 12:00:28;;;;;;;4.85;4.45;;;;;;;;;;5041313;28;20028;-84
2021/06/10 12:02:55;;;;;;;5.22;4.82;;;;;;;;;;5040241;28;20025;-84
2021/06/10 12:05:21;;;;;;;4.72;4.32;;;;;;;;;;5032972;28;20037;-84
2021/06/10 12:07:48;;;;;;;4.43;4.13;;;;;;;;;;5030466;28;20106;-82
2021/06/10 12:10:15;;;;;;;4.38;4.03;;;;;;;;;;5053074;28;20021;-84
2021/06/10 12:12:43;;;;;;;4.90;4.50;;;;;;;;;;5042610;28;20048;-84
2021/06/10 12:15:16;;;;;;;4.45;4.05;;;;;;;;;;5033961;28;20029;-84
2021/06/10 12:17:48;;;;;;;4.80;4.40;;;;;;;;;;5048439;28;20036;-83
2021/06/10 12:20:18;;;;;;;5.57;4.40;;;;;;;;;;5056030;28;20091;-83
2021/06/10 12:22:45;;;;;;;4.55;3.97;;;;;;;;;;5044237;28;20021;-82
2021/06/10 12:25:18;;;;;;;4.28;3.97;;;;;;;;;;5033589;28;20055;-82
2021/06/10 12:27:44;;;;;;;4.50;4.10;;;;;;;;;;5033544;28;20054;-82
2021/06/10 12:30:40;;;;;;;4.65;4.32;;;;;;;;;;5037803;28;20026;-82
2021/06/10 12:33:13;;;;;;;5.05;4.60;;;;;;;;;;5032450;28;20042;-82
2021/06/10 12:35:40;;;;;;;4.43;4.03;;;;;;;;;;5051994;28;20092;-83
2021/06/10 12:38:06;;;;;;;4.47;4.00;;;;;;;;;;5054040;28;20036;-81
2021/06/10 12:40:44;;;;;;;3.75;3.45;;;;;;;;;;5048388;28;20032;-81
2021/06/10 12:43:12;;;;;;;3.75;3.53;;;;;;;;;;5025618;28;20035;-82
2021/06/10 12:45:39;;;;;;;4.10;3.75;;;;;;;;;;5040771;28;20095;-82
2021/06/10 12:48:40;;;;;;;4.22;3.92;;;;;;;;;;5053753;28;20059;-82
2021/06/10 12:51:17;;;;;;;4.93;4.53;;;;;;;;;;4994135;28;20080;-82
2021/06/10 12:53:59;;;;;;;4.72;4.18;;;;;;;;;;5026686;28;20045;-82
2021/06/10 12:56:33;;;;;;;4.15;3.85;;;;;;;;;;5036054;28;20085;-81
2021/06/10 12:59:00;;;;;;;4.45;4.05;;;;;;;;;;5052833;28;20005;-83
2021/06/10 13:01:26;;;;;;;4.63;3.60;;;;;;;;;;5024212;28;20290;-84
2021/06/10 13:03:52;;;;;;;4.32;3.90;;;;;;;;;;5031600;28;20132;-84
2021/06/10 13:06:22;;;;;;;4.70;4.30;;;;;;;;;;5043779;28;20026;-82
2021/06/10 13:08:48;;;;;;;4.57;4.18;;;;;;;;;;5044459;28;20032;-82
2021/06/10 13:11:15;;;;;;;5.60;4.18;;;;;;;;;;5039073;28;20034;-81
2021/06/10 13:13:41;;;;;;;4.13;3.83;;;;;;;;;;5037895;28;20068;-80
2021/06/10 13:16:07;;;;;;;4.00;3.80;;;;;;;;;;5026211;28;20502;-83
2021/06/10 13:18:34;;;;;;;4.20;3.90;;;;;;;;;;5023316;28;20041;-84
2021/06/10 13:21:01;;;;;;;4.07;3.75;;;;;;;;;;5036316;28;20018;-83
2021/06/10 13:23:27;;;;;;;4.25;3.85;;;;;;;;;;5035322;28;20057;-83
2021/06/10 13:26:14;;;;;;;4.15;3.85;;;;;;;;;;5037257;28;20037;-81
2021/06/10 13:29:02;;;;;;;5.22;4.13;;;;;;;;;;5046934;28;20048;-88
2021/06/10 13:31:41;;;;;;;4.80;4.40;;;;;;;;;;5033510;28;20045;-83
2021/06/10 13:34:13;;;;;;;4.22;3.92;;;;;;;;;;5032662;28;20105;-84
2021/06/10 13:37:15;;;;;;;;;;;;;;;;;;5030670;28;20022;-82
2021/06/10 13:39:34;;;;;;;4.05;3.75;;;;;;;;;;5037708;28;19944;-84
2021/06/10 13:42:00;;;;;;;6.70;3.95;;;;;;;;;;5040338;28;20041;-84
2021/06/10 13:44:27;;;;;;;3.83;3.58;;;;;;;;;;5041711;28;20033;-85
2021/06/10 13:46:53;;;;;;;4.03;3.72;;;;;;;;;;5041349;28;20103;-84
2021/06/10 13:49:19;;;;;;;4.03;3.67;;;;;;;;;;5042492;28;20057;-83
2021/06/10 13:51:45;;;;;;;4.47;3.63;;;;;;;;;;5040390;28;20021;-83
2021/06/10 13:54:11;;;;;;;3.53;3.22;;;;;;;;;;5021650;28;20026;-85
2021/06/10 13:56:38;;;;;;;4.13;3.83;;;;;;;;;;5020184;28;20033;-84
2021/06/10 13:59:04;;;;;;;3.42;3.22;;;;;;;;;;5021472;28;20021;-84
2021/06/10 14:01:30;;;;;;;4.00;3.70;;;;;;;;;;5021084;28;20018;-83
2021/06/10 14:03:56;;;;;;;3.83;3.53;;;;;;;;;;5031085;28;20052;-83
2021/06/10 14:06:22;;;;;;;4.63;3.60;;;;;;;;;;5040647;28;20025;-82
2021/06/10 14:08:48;;;;;;;4.00;3.63;;;;;;;;;;5022135;28;20486;-83
2021/06/10 14:11:15;;;;;;;3.88;3.55;;;;;;;;;;5021931;28;20072;-84
2021/06/10 14:13:43;;;;;;;4.32;4.03;;;;;;;;;;5018703;28;20069;-84
2021/06/10 14:16:16;;;;;;;3.83;3.53;;;;;;;;;;5019840;28;20029;-83
2021/06/10 14:18:42;;;;;;;3.97;3.58;;;;;;;;;;5036921;28;20026;-85
2021/06/10 14:21:08;;;;;;;3.35;3.15;;;;;;;;;;5019795;28;20029;-83
2021/06/10 14:23:34;;;;;;;3.65;3.35;;;;;;;;;;5032218;28;20474;-85
2021/06/10 14:26:00;;;;;;;3.40;3.20;;;;;;;;;;5023551;28;20095;-85
2021/06/10 14:28:26;;;;;;;4.20;3.63;;;;;;;;;;5042358;28;20037;-84
2021/06/10 14:31:12;;;;;;;3.97;3.67;;;;;;;;;;5034297;28;20081;-85
2021/06/10 14:33:40;;;;;;;4.40;3.75;;;;;;;;;;5020163;28;20054;-85
2021/06/10 14:36:06;;;;;;;4.65;4.07;;;;;;;;;;5037453;28;20024;-85
2021/06/10 14:38:32;;;;;;;3.70;3.38;;;;;;;;;;5052211;28;20020;-83
2021/06/10 14:40:58;;;;;;;3.70;3.40;;;;;;;;;;5044974;28;20048;-83
2021/06/10 14:43:25;;;;;;;4.38;3.70;;;;;;;;;;5049537;28;20032;-84
2021/06/10 14:45:51;;;;;;;3.38;3.08;;;;;;;;;;5051871;28;20029;-83
2021/06/10 14:48:17;;;;;;;5.38;3.42;;;;;;;;;;5035682;28;20032;-84